Portada
METAR-TAF:

METAR-TAF

Aeropuertos :

Laván, Irán

latitud: 26-48-37N, longitud: 53-21-22E, altitud: 23 m

Observación

El informe se hizo hace 9 horas y 34 minutos, a las 15:00 UTC
Viento 8 kt del oeste
Temperatura 20°C
Humedad 60%
Presión 1015 hPa
Visibilidad: 8000 m

METAR: OIBV 191500Z 27008KT 8000 NSC 20/12 Q1015

Hora: 04:04 (00:34 UTC)


TAF: falta

Observaciones y pronósticos meteorológicos de más de 4000 aeropuertos (mensajes METAR y TAF).

Los puntos amarillos y rojos representan las estaciones disponibles.

Ponga el ratón en el punto deseado para ver el nombre de la estación.

Haga clic para ver las observaciones y los pronósticos meteorológicos.

Para cambiar el mapa : haga clic en los botones verdes con una cruz de color negro para hacer un zoom, en el botón verde con un guión para alejar o en las flechas verdes para mapas adyacentes.


METAR-TAF: